TimeEST,TemperatureF,Dew PointF,Humidity,Sea Level PressureIn,VisibilityMPH,Wind Direction,Wind SpeedMPH,Gust SpeedMPH,PrecipitationIn,Events,Conditions,WindDirDegrees,DateUTC
12:54 AM,17.1,10.0,74,29.90,10.0,West,12.7,21.9,N/A,,Overcast,270,2013-02-04 05:54:00
1:54 AM,17.1,9.0,71,29.91,10.0,West,17.3,24.2,N/A,,Overcast,260,2013-02-04 06:54:00
2:54 AM,16.0,8.1,71,29.93,10.0,West,17.3,24.2,N/A,,Mostly Cloudy,270,2013-02-04 07:54:00
3:54 AM,16.0,8.1,71,29.94,10.0,West,12.7,-,N/A,,Scattered Clouds,260,2013-02-04 08:54:00
5:54 AM,16.0,7.0,68,29.97,10.0,West,16.1,24.2,N/A,,Mostly Cloudy,270,2013-02-04 10:54:00
6:54 AM,14.0,6.1,71,29.99,10.0,West,12.7,-,N/A,,Mostly Cloudy,270,2013-02-04 11:54:00
7:54 AM,14.0,6.1,71,29.99,10.0,West,12.7,-,N/A,,Mostly Cloudy,260,2013-02-04 12:54:00
8:54 AM,15.1,6.1,68,30.00,10.0,West,10.4,-,N/A,,Mostly Cloudy,270,2013-02-04 13:54:00
9:54 AM,17.1,6.1,62,29.99,10.0,West,13.8,-,N/A,,Mostly Cloudy,280,2013-02-04 14:54:00
10:54 AM,18.0,6.1,60,30.00,10.0,West,13.8,-,N/A,,Mostly Cloudy,270,2013-02-04 15:54:00
11:54 AM,18.0,6.1,60,29.99,10.0,West,12.7,23.0,N/A,,Overcast,270,2013-02-04 16:54:00
12:54 PM,19.0,7.0,59,29.96,8.0,West,12.7,-,0.00,Snow,Light Snow,280,2013-02-04 17:54:00
1:54 PM,19.0,8.1,62,29.95,9.0,West,10.4,-,0.00,Snow,Light Snow,270,2013-02-04 18:54:00
2:54 PM,19.0,9.0,65,29.95,6.0,West,10.4,-,0.00,Snow,Light Snow,270,2013-02-04 19:54:00
3:54 PM,18.0,10.9,74,29.95,4.0,SW,5.8,-,0.00,Snow,Light Snow,230,2013-02-04 20:54:00
4:54 PM,18.0,10.9,74,29.94,4.0,SW,4.6,-,0.00,,Haze,230,2013-02-04 21:54:00
5:54 PM,18.0,12.0,78,29.93,10.0,SW,6.9,-,0.00,Snow,Light Snow,230,2013-02-04 22:54:00
6:54 PM,19.0,12.9,77,29.94,10.0,WSW,3.5,-,0.00,Snow,Light Snow,240,2013-02-04 23:54:00
7:54 PM,19.0,12.9,77,29.95,10.0,Calm,Calm,-,0.00,Snow,Light Snow,0,2013-02-05 00:54:00
8:54 PM,19.0,14.0,81,29.95,10.0,Calm,Calm,-,0.00,Snow,Light Snow,0,2013-02-05 01:54:00
9:54 PM,19.0,14.0,81,29.94,9.0,South,3.5,-,0.00,Snow,Light Snow,180,2013-02-05 02:54:00
10:54 PM,19.0,15.1,85,29.95,7.0,South,3.5,-,0.00,Snow,Light Snow,180,2013-02-05 03:54:00
11:54 PM,19.0,12.9,77,29.95,9.0,Calm,Calm,-,0.00,Snow,Light Snow,0,2013-02-05 04:54:00